KTOP/TOP METAR and TAF weather

Enter ICAO airport designator
Station Type Date Time Source
KTOP METAR 2018/12/12 11:53 UTC NOAA

KTOP 121153Z AUTO 24005KT 10SM CLR M01/M03 A2994 RMK AO2 SLP143 T10061033 10017 21011 53003


Station Type Date Time Source
KTOP Decoded METAR 2018/12/12 11:53 UTC NOAA

TOPEKA BILLARD MUNICIPAL AIRPORT, KS, United States (KTOP) 39-04N 95-38W 268M
Dec 12, 2018 - 06:53 AM EST / 2018.12.12 1153 UTC
Wind: from the WSW (240 degrees) at 6 MPH (5 KT):0
Visibility: 10 mile(s):0
Sky conditions: clear
Temperature: 30.9 F (-0.6 C)
Windchill: 24 F (-4 C):1
Dew Point: 26.1 F (-3.3 C)
Relative Humidity: 81%
Pressure (altimeter): 29.94 in. Hg (1013 hPa)
Pressure tendency: 0.01 inches (0.3 hPa) higher than three hours ago
ob: KTOP 121153Z AUTO 24005KT 10SM CLR M01/M03 A2994 RMK AO2 SLP143 T10061033 10017 21011 53003
cycle: 12

Station Type Date Time Source
KTOP TAF 2018/12/12 12:22 UTC NOAA

TAF KTOP 121120Z 1212/1312 25005KT P6SM SKC
FM130900 VRB03KT P6SM BKN040


Example: see airport list